Portada
METAR-TAF:

METAR-TAF

Aeroports :

Toló, França

latitud: 43-06N, longitud: 006-09E, altitud: 3 m

Observació

L'informe es va fer fa 38 minuts, a les 04:30 UTC
Vent 17 kt del Nord-Oest, variant entre Oest/Nord-Oest i Nord
Temperatura 11°C
Humitat 25%
Pressió 1013 hPa
Visibilitat 10 km o més
sense núvols per sota de 1500 mi sense presència de cumulonimbus.

METAR: LFTH 280430Z AUTO 32017KT 290V350 CAVOK 11/M08 Q1013 NOSIG

Hora: 06:08 (05:08 UTC)

Pronòstic

L'informe es va fer fa 3 hores i 8 minuts, a les 02:00 UTC
Pronòstic vàlid del 28 a les 03 UTC al 29 a les 03 UTC
Vent 10 kt del Oest/Nord-Oest
Visibilitat 10 km o més
sense núvols per sota de 1500 mi sense presència de cumulonimbus.
Probabilitat 40% :
Temporalment
l' 28 a les 03 UTC al 28 a les 05 UTC
Vent 20 kt del Oest/Nord-Oest amb ràfegues de 30 kt

TAF: LFTH 280200Z 2803/2903 30010KT CAVOK PROB40 TEMPO 2803/2805 30020G30KT

Observacions i pronòstics meteorològics de més de 4000 aeroports (METAR i TAF).

Les estacions disponibles són els punts grocs i vermells al mapa.

Posi el ratolí al punt desitjat per veure el nom de l'estació.

Feu clic per veure les observacions i els pronòstics meteorològics.

Per canviar el mapa: feu clic els botons verds amb una creu de color negre per apropar; al botó verd amb un guió per allunyar la imatge; o en les fletxes verdes per a mapes adjacents.


METAR-TAF: